Rhayader, United Kingdom
Current Conditions -  °F | °C
As of 11:50 AM on Friday 24 Oct 2014 (Local Time) from EGOS Reporting Station
Broken Clouds Broken Clouds  
Wind Chill: 14°   Ceiling: 2400
Heat Index: 14°   Visibility: 6mi
Dew Point: 10°   Wind: 7mph
Humidity: 77%   Direction: 250°WSW
Pressure: 29.88"   Gusts: NA
Location:  52.3°N, 3.51°W
Report Text: EGOS 241050Z 25006KT 9999 FEW012 BKN024 14/10 Q1012 WHT TEMPO SCT025 BLU
Loading
Personal Weather Stations






























Interactive Weather Map
Tropical Storm Tracking
New forecast layout! Learn more

10-Day Weather Forecast

Advertisements
Track Severe Weather on mobile